sensor_id;sensor_type;location;lat;lon;timestamp;pressure;altitude;pressure_sealevel;temperature;humidity
12178;BME280;6152;48.728;9.256;2023-04-23T00:00:20;96458.91;;;13.26;100.00
12178;BME280;6152;48.728;9.256;2023-04-23T00:02:47;96452.84;;;13.25;100.00
12178;BME280;6152;48.728;9.256;2023-04-23T00:05:19;96455.03;;;13.20;100.00
12178;BME280;6152;48.728;9.256;2023-04-23T00:07:45;96454.88;;;13.22;100.00
12178;BME280;6152;48.728;9.256;2023-04-23T00:10:12;96444.31;;;13.23;100.00
12178;BME280;6152;48.728;9.256;2023-04-23T00:12:38;96455.97;;;13.19;100.00
12178;BME280;6152;48.728;9.256;2023-04-23T00:15:06;96457.88;;;13.17;100.00
12178;BME280;6152;48.728;9.256;2023-04-23T00:17:32;96452.06;;;13.13;100.00
12178;BME280;6152;48.728;9.256;2023-04-23T00:19:58;96456.47;;;13.13;100.00
12178;BME280;6152;48.728;9.256;2023-04-23T00:22:25;96459.09;;;13.13;100.00
12178;BME280;6152;48.728;9.256;2023-04-23T00:24:51;96456.47;;;13.13;100.00
12178;BME280;6152;48.728;9.256;2023-04-23T00:27:17;96453.28;;;13.09;100.00
12178;BME280;6152;48.728;9.256;2023-04-23T00:29:43;96447.81;;;13.12;100.00
12178;BME280;6152;48.728;9.256;2023-04-23T00:32:11;96453.72;;;13.14;100.00
12178;BME280;6152;48.728;9.256;2023-04-23T00:34:37;96452.19;;;13.12;100.00
12178;BME280;6152;48.728;9.256;2023-04-23T00:37:03;96463.22;;;13.15;100.00
12178;BME280;6152;48.728;9.256;2023-04-23T00:39:31;96458.84;;;13.16;100.00
12178;BME280;6152;48.728;9.256;2023-04-23T00:41:57;96463.22;;;13.15;100.00
12178;BME280;6152;48.728;9.256;2023-04-23T00:44:26;96462.41;;;13.15;100.00
12178;BME280;6152;48.728;9.256;2023-04-23T00:46:53;96471.44;;;13.11;100.00
12178;BME280;6152;48.728;9.256;2023-04-23T00:49:20;96470.34;;;13.13;100.00
12178;BME280;6152;48.728;9.256;2023-04-23T00:51:48;96475.81;;;13.10;100.00
12178;BME280;6152;48.728;9.256;2023-04-23T00:54:14;96475.47;;;13.04;100.00
12178;BME280;6152;48.728;9.256;2023-04-23T00:56:40;96468.81;;;13.00;100.00
12178;BME280;6152;48.728;9.256;2023-04-23T00:59:06;96477.16;;;12.94;100.00
12178;BME280;6152;48.728;9.256;2023-04-23T01:01:32;96475.66;;;12.80;100.00
12178;BME280;6152;48.728;9.256;2023-04-23T01:03:58;96472.94;;;12.71;100.00
12178;BME280;6152;48.728;9.256;2023-04-23T01:06:25;96488.25;;;12.64;100.00
12178;BME280;6152;48.728;9.256;2023-04-23T01:08:53;96482.22;;;12.52;100.00
12178;BME280;6152;48.728;9.256;2023-04-23T01:11:19;96480.56;;;12.40;100.00
12178;BME280;6152;48.728;9.256;2023-04-23T01:13:45;96484.72;;;12.32;100.00
12178;BME280;6152;48.728;9.256;2023-04-23T01:16:12;96479.38;;;12.22;100.00
12178;BME280;6152;48.728;9.256;2023-04-23T01:18:38;96492.31;;;12.12;100.00
12178;BME280;6152;48.728;9.256;2023-04-23T01:21:06;96488.84;;;12.01;100.00
12178;BME280;6152;48.728;9.256;2023-04-23T01:23:33;96493.09;;;11.91;100.00
12178;BME280;6152;48.728;9.256;2023-04-23T01:25:59;96491.06;;;11.83;100.00
12178;BME280;6152;48.728;9.256;2023-04-23T01:28:25;96494.25;;;11.76;100.00
12178;BME280;6152;48.728;9.256;2023-04-23T01:30:52;96479.75;;;11.60;100.00
12178;BME280;6152;48.728;9.256;2023-04-23T01:33:18;96502.75;;;11.66;100.00
12178;BME280;6152;48.728;9.256;2023-04-23T01:35:45;96505.56;;;11.63;100.00
12178;BME280;6152;48.728;9.256;2023-04-23T01:38:13;96500.81;;;11.57;100.00
12178;BME280;6152;48.728;9.256;2023-04-23T01:40:40;96505.53;;;11.52;100.00
12178;BME280;6152;48.728;9.256;2023-04-23T01:43:08;96511.72;;;11.51;100.00
12178;BME280;6152;48.728;9.256;2023-04-23T01:45:34;96508.28;;;11.51;100.00
12178;BME280;6152;48.728;9.256;2023-04-23T01:48:01;96510.28;;;11.47;100.00
12178;BME280;6152;48.728;9.256;2023-04-23T01:50:27;96510.28;;;11.47;100.00
12178;BME280;6152;48.728;9.256;2023-04-23T01:52:54;96503.63;;;11.43;100.00
12178;BME280;6152;48.728;9.256;2023-04-23T01:55:21;96515.91;;;11.41;100.00
12178;BME280;6152;48.728;9.256;2023-04-23T01:57:48;96517.47;;;11.44;100.00
12178;BME280;6152;48.728;9.256;2023-04-23T02:00:16;96519.25;;;11.43;100.00
12178;BME280;6152;48.728;9.256;2023-04-23T02:02:43;96515.72;;;11.44;100.00
12178;BME280;6152;48.728;9.256;2023-04-23T02:05:15;96521.72;;;11.45;100.00
12178;BME280;6152;48.728;9.256;2023-04-23T02:07:42;96517.47;;;11.44;100.00
12178;BME280;6152;48.728;9.256;2023-04-23T02:10:09;96518.41;;;11.43;100.00
12178;BME280;6152;48.728;9.256;2023-04-23T02:12:36;96524.69;;;11.40;100.00
12178;BME280;6152;48.728;9.256;2023-04-23T02:15:02;96530.13;;;11.37;100.00
12178;BME280;6152;48.728;9.256;2023-04-23T02:17:29;96522.50;;;11.34;100.00
12178;BME280;6152;48.728;9.256;2023-04-23T02:19:56;96530.13;;;11.37;100.00
12178;BME280;6152;48.728;9.256;2023-04-23T02:22:22;96537.94;;;11.37;100.00
12178;BME280;6152;48.728;9.256;2023-04-23T02:24:51;96538.03;;;11.36;100.00
12178;BME280;6152;48.728;9.256;2023-04-23T02:27:17;96529.63;;;11.32;100.00
12178;BME280;6152;48.728;9.256;2023-04-23T02:29:44;96541.72;;;11.33;100.00
12178;BME280;6152;48.728;9.256;2023-04-23T02:32:10;96532.44;;;11.29;100.00
12178;BME280;6152;48.728;9.256;2023-04-23T02:34:37;96525.56;;;11.28;100.00
12178;BME280;6152;48.728;9.256;2023-04-23T02:37:03;96530.56;;;11.31;100.00
12178;BME280;6152;48.728;9.256;2023-04-23T02:39:30;96521.81;;;11.32;100.00
12178;BME280;6152;48.728;9.256;2023-04-23T02:41:56;96520.13;;;11.31;100.00
12178;BME280;6152;48.728;9.256;2023-04-23T02:44:24;96528.91;;;11.30;100.00
12178;BME280;6152;48.728;9.256;2023-04-23T02:46:50;96530.78;;;11.28;100.00
12178;BME280;6152;48.728;9.256;2023-04-23T02:49:16;96529.34;;;11.24;100.00
12178;BME280;6152;48.728;9.256;2023-04-23T02:51:45;96529.56;;;11.21;100.00
12178;BME280;6152;48.728;9.256;2023-04-23T02:54:11;96528.41;;;11.25;100.00
12178;BME280;6152;48.728;9.256;2023-04-23T02:56:38;96527.78;;;11.22;100.00
12178;BME280;6152;48.728;9.256;2023-04-23T02:59:05;96527.31;;;11.17;100.00
12178;BME280;6152;48.728;9.256;2023-04-23T03:01:32;96524.78;;;11.15;100.00
12178;BME280;6152;48.728;9.256;2023-04-23T03:03:59;96531.69;;;11.16;100.00
12178;BME280;6152;48.728;9.256;2023-04-23T03:06:25;96532.22;;;11.08;100.00
12178;BME280;6152;48.728;9.256;2023-04-23T03:08:52;96532.53;;;11.04;100.00
12178;BME280;6152;48.728;9.256;2023-04-23T03:11:18;96527.56;;;11.01;100.00
12178;BME280;6152;48.728;9.256;2023-04-23T03:13:44;96522.56;;;10.98;100.00
12178;BME280;6152;48.728;9.256;2023-04-23T03:16:10;96522.56;;;10.98;100.00
12178;BME280;6152;48.728;9.256;2023-04-23T03:18:36;96522.56;;;10.98;100.00
12178;BME280;6152;48.728;9.256;2023-04-23T03:21:03;96526.13;;;10.97;100.00
12178;BME280;6152;48.728;9.256;2023-04-23T03:23:29;96523.41;;;10.98;100.00
12178;BME280;6152;48.728;9.256;2023-04-23T03:25:55;96521.88;;;10.96;100.00
12178;BME280;6152;48.728;9.256;2023-04-23T03:28:21;96513.31;;;10.94;100.00
12178;BME280;6152;48.728;9.256;2023-04-23T03:30:47;96510.50;;;10.97;100.00
12178;BME280;6152;48.728;9.256;2023-04-23T03:33:13;96512.16;;;10.98;100.00
12178;BME280;6152;48.728;9.256;2023-04-23T03:35:40;96508.63;;;10.99;100.00
12178;BME280;6152;48.728;9.256;2023-04-23T03:38:06;96509.06;;;10.93;100.00
12178;BME280;6152;48.728;9.256;2023-04-23T03:40:32;96510.31;;;10.87;100.00
12178;BME280;6152;48.728;9.256;2023-04-23T03:42:58;96507.09;;;10.84;100.00
12178;BME280;6152;48.728;9.256;2023-04-23T03:45:25;96504.50;;;10.84;100.00
12178;BME280;6152;48.728;9.256;2023-04-23T03:47:51;96504.22;;;10.76;100.00
12178;BME280;6152;48.728;9.256;2023-04-23T03:50:17;96508.69;;;10.74;100.00
12178;BME280;6152;48.728;9.256;2023-04-23T03:52:43;96500.91;;;10.74;100.00
12178;BME280;6152;48.728;9.256;2023-04-23T03:55:09;96506.00;;;10.75;100.00
12178;BME280;6152;48.728;9.256;2023-04-23T03:57:36;96518.28;;;10.73;100.00
12178;BME280;6152;48.728;9.256;2023-04-23T04:00:03;96520.16;;;10.71;100.00
12178;BME280;6152;48.728;9.256;2023-04-23T04:02:33;96525.59;;;10.68;100.00
12178;BME280;6152;48.728;9.256;2023-04-23T04:04:59;96531.81;;;10.65;100.00
12178;BME280;6152;48.728;9.256;2023-04-23T04:07:26;96534.94;;;10.71;100.00
12178;BME280;6152;48.728;9.256;2023-04-23T04:09:53;96534.34;;;10.67;100.00
12178;BME280;6152;48.728;9.256;2023-04-23T04:12:19;96526.63;;;10.65;100.00
12178;BME280;6152;48.728;9.256;2023-04-23T04:14:45;96528.72;;;10.60;100.00
12178;BME280;6152;48.728;9.256;2023-04-23T04:17:11;96531.41;;;10.59;100.00
12178;BME280;6152;48.728;9.256;2023-04-23T04:19:41;96529.66;;;10.59;100.00
12178;BME280;6152;48.728;9.256;2023-04-23T04:22:08;96535.59;;;10.61;100.00
12178;BME280;6152;48.728;9.256;2023-04-23T04:24:34;96536.53;;;10.60;100.00
12178;BME280;6152;48.728;9.256;2023-04-23T04:27:01;96528.94;;;10.57;100.00
12178;BME280;6152;48.728;9.256;2023-04-23T04:29:27;96527.88;;;10.60;100.00
12178;BME280;6152;48.728;9.256;2023-04-23T04:31:54;96524.59;;;10.58;100.00
12178;BME280;6152;48.728;9.256;2023-04-23T04:34:21;96536.00;;;10.55;100.00
12178;BME280;6152;48.728;9.256;2023-04-23T04:36:48;96531.75;;;10.54;100.00
12178;BME280;6152;48.728;9.256;2023-04-23T04:39:14;96543.19;;;10.52;100.00
12178;BME280;6152;48.728;9.256;2023-04-23T04:41:40;96541.66;;;10.49;100.00
12178;BME280;6152;48.728;9.256;2023-04-23T04:44:07;96539.16;;;10.48;100.00
12178;BME280;6152;48.728;9.256;2023-04-23T04:46:34;96530.00;;;10.42;100.00
12178;BME280;6152;48.728;9.256;2023-04-23T04:49:14;96534.50;;;10.40;100.00
12178;BME280;6152;48.728;9.256;2023-04-23T04:51:40;96530.00;;;10.42;100.00
12178;BME280;6152;48.728;9.256;2023-04-23T04:54:07;96537.81;;;10.42;100.00
12178;BME280;6152;48.728;9.256;2023-04-23T04:56:33;96528.16;;;10.44;100.00
12178;BME280;6152;48.728;9.256;2023-04-23T04:59:00;96535.09;;;10.44;100.00
12178;BME280;6152;48.728;9.256;2023-04-23T05:01:27;96529.78;;;10.45;100.00
12178;BME280;6152;48.728;9.256;2023-04-23T05:03:55;96520.34;;;10.44;100.00
12178;BME280;6152;48.728;9.256;2023-04-23T05:06:21;96527.94;;;10.47;100.00
12178;BME280;6152;48.728;9.256;2023-04-23T05:08:47;96524.38;;;10.48;100.00
12178;BME280;6152;48.728;9.256;2023-04-23T05:11:17;96532.06;;;10.50;100.00
12178;BME280;6152;48.728;9.256;2023-04-23T05:13:45;96525.19;;;10.49;100.00
12178;BME280;6152;48.728;9.256;2023-04-23T05:16:11;96532.47;;;10.56;100.00
12178;BME280;6152;48.728;9.256;2023-04-23T05:18:38;96530.41;;;10.61;100.00
12178;BME280;6152;48.728;9.256;2023-04-23T05:21:05;96523.84;;;10.69;100.00
12178;BME280;6152;48.728;9.256;2023-04-23T05:23:32;96533.91;;;10.73;100.00
12178;BME280;6152;48.728;9.256;2023-04-23T05:25:58;96536.19;;;10.78;100.00
12178;BME280;6152;48.728;9.256;2023-04-23T05:28:25;96532.66;;;10.79;100.00
12178;BME280;6152;48.728;9.256;2023-04-23T05:30:51;96544.47;;;10.83;100.00
12178;BME280;6152;48.728;9.256;2023-04-23T05:33:17;96543.53;;;10.84;100.00
12178;BME280;6152;48.728;9.256;2023-04-23T05:35:43;96545.94;;;10.87;100.00
12178;BME280;6152;48.728;9.256;2023-04-23T05:38:10;96547.59;;;10.88;100.00
12178;BME280;6152;48.728;9.256;2023-04-23T05:40:36;96543.84;;;10.92;100.00
12178;BME280;6152;48.728;9.256;2023-04-23T05:43:02;96541.97;;;10.94;100.00
12178;BME280;6152;48.728;9.256;2023-04-23T05:45:28;96544.34;;;10.97;100.00
12178;BME280;6152;48.728;9.256;2023-04-23T05:47:54;96537.97;;;11.01;100.00
12178;BME280;6152;48.728;9.256;2023-04-23T05:50:20;96526.41;;;11.05;100.00
12178;BME280;6152;48.728;9.256;2023-04-23T05:52:47;96533.13;;;11.20;100.00
12178;BME280;6152;48.728;9.256;2023-04-23T05:55:13;96536.72;;;11.30;100.00
12178;BME280;6152;48.728;9.256;2023-04-23T05:57:43;96534.28;;;11.40;100.00
12178;BME280;6152;48.728;9.256;2023-04-23T06:00:09;96536.94;;;11.51;100.00
12178;BME280;6152;48.728;9.256;2023-04-23T06:02:37;96539.41;;;11.52;100.00
12178;BME280;6152;48.728;9.256;2023-04-23T06:05:04;96542.25;;;11.49;100.00
12178;BME280;6152;48.728;9.256;2023-04-23T06:07:31;96550.56;;;11.54;100.00
12178;BME280;6152;48.728;9.256;2023-04-23T06:09:57;96553.16;;;11.54;100.00
12178;BME280;6152;48.728;9.256;2023-04-23T06:12:23;96548.94;;;11.64;100.00
12178;BME280;6152;48.728;9.256;2023-04-23T06:14:50;96559.53;;;11.74;100.00
12178;BME280;6152;48.728;9.256;2023-04-23T06:17:17;96552.38;;;11.89;100.00
12178;BME280;6152;48.728;9.256;2023-04-23T06:19:43;96558.19;;;11.92;100.00
12178;BME280;6152;48.728;9.256;2023-04-23T06:22:09;96548.13;;;11.99;100.00
12178;BME280;6152;48.728;9.256;2023-04-23T06:24:35;96548.63;;;12.15;100.00
12178;BME280;6152;48.728;9.256;2023-04-23T06:27:01;96544.09;;;12.17;100.00
12178;BME280;6152;48.728;9.256;2023-04-23T06:29:28;96549.34;;;12.28;100.00
12178;BME280;6152;48.728;9.256;2023-04-23T06:31:55;96553.13;;;12.24;100.00
12178;BME280;6152;48.728;9.256;2023-04-23T06:34:24;96560.97;;;12.35;100.00
12178;BME280;6152;48.728;9.256;2023-04-23T06:36:50;96552.22;;;12.47;100.00
12178;BME280;6152;48.728;9.256;2023-04-23T06:39:16;96556.94;;;12.42;100.00
12178;BME280;6152;48.728;9.256;2023-04-23T06:41:43;96559.69;;;12.63;100.00
12178;BME280;6152;48.728;9.256;2023-04-23T06:44:09;96539.50;;;12.76;100.00
12178;BME280;6152;48.728;9.256;2023-04-23T06:46:35;96536.91;;;12.65;100.00
12178;BME280;6152;48.728;9.256;2023-04-23T06:49:01;96537.25;;;12.72;100.00
12178;BME280;6152;48.728;9.256;2023-04-23T06:51:27;96529.06;;;12.76;100.00
12178;BME280;6152;48.728;9.256;2023-04-23T06:53:54;96531.41;;;12.90;100.00
12178;BME280;6152;48.728;9.256;2023-04-23T06:56:20;96533.91;;;12.92;100.00
12178;BME280;6152;48.728;9.256;2023-04-23T06:58:46;96530.56;;;12.90;100.00
12178;BME280;6152;48.728;9.256;2023-04-23T07:01:13;96531.06;;;12.84;100.00
12178;BME280;6152;48.728;9.256;2023-04-23T07:03:39;96531.66;;;12.87;100.00
12178;BME280;6152;48.728;9.256;2023-04-23T07:06:09;96530.13;;;12.96;100.00
12178;BME280;6152;48.728;9.256;2023-04-23T07:08:35;96524.66;;;12.77;100.00
12178;BME280;6152;48.728;9.256;2023-04-23T07:11:01;96520.88;;;12.81;100.00
12178;BME280;6152;48.728;9.256;2023-04-23T07:13:28;96525.59;;;12.87;100.00
12178;BME280;6152;48.728;9.256;2023-04-23T07:15:54;96519.91;;;12.93;100.00
12178;BME280;6152;48.728;9.256;2023-04-23T07:18:20;96512.63;;;13.07;100.00
12178;BME280;6152;48.728;9.256;2023-04-23T07:20:46;96518.91;;;13.27;100.00
12178;BME280;6152;48.728;9.256;2023-04-23T07:23:12;96510.53;;;13.44;100.00
12178;BME280;6152;48.728;9.256;2023-04-23T07:25:38;96515.38;;;13.70;100.00
12178;BME280;6152;48.728;9.256;2023-04-23T07:28:04;96515.53;;;13.89;100.00
12178;BME280;6152;48.728;9.256;2023-04-23T07:30:31;96514.06;;;13.96;100.00
12178;BME280;6152;48.728;9.256;2023-04-23T07:32:57;96513.97;;;14.07;100.00
12178;BME280;6152;48.728;9.256;2023-04-23T07:35:23;96509.13;;;14.23;100.00
12178;BME280;6152;48.728;9.256;2023-04-23T07:37:49;96511.53;;;14.15;100.00
12178;BME280;6152;48.728;9.256;2023-04-23T07:40:23;96514.94;;;14.27;100.00
12178;BME280;6152;48.728;9.256;2023-04-23T07:42:50;96503.38;;;14.59;100.00
12178;BME280;6152;48.728;9.256;2023-04-23T07:45:17;96502.19;;;14.83;100.00
12178;BME280;6152;48.728;9.256;2023-04-23T07:47:44;96501.41;;;14.92;100.00
12178;BME280;6152;48.728;9.256;2023-04-23T07:50:11;96510.22;;;14.91;100.00
12178;BME280;6152;48.728;9.256;2023-04-23T07:52:38;96511.94;;;15.11;100.00
12178;BME280;6152;48.728;9.256;2023-04-23T07:55:05;96503.94;;;15.22;100.00
12178;BME280;6152;48.728;9.256;2023-04-23T07:57:31;96508.63;;;15.28;100.00
12178;BME280;6152;48.728;9.256;2023-04-23T07:59:57;96505.34;;;15.26;100.00
12178;BME280;6152;48.728;9.256;2023-04-23T08:02:23;96504.91;;;15.21;100.00
12178;BME280;6152;48.728;9.256;2023-04-23T08:04:52;96502.31;;;15.40;100.00
12178;BME280;6152;48.728;9.256;2023-04-23T08:07:18;96497.09;;;15.79;100.00
12178;BME280;6152;48.728;9.256;2023-04-23T08:09:44;96489.03;;;16.09;100.00
12178;BME280;6152;48.728;9.256;2023-04-23T08:12:11;96484.72;;;16.54;100.00
12178;BME280;6152;48.728;9.256;2023-04-23T08:14:37;96487.16;;;16.75;100.00
12178;BME280;6152;48.728;9.256;2023-04-23T08:17:03;96477.25;;;16.87;100.00
12178;BME280;6152;48.728;9.256;2023-04-23T08:19:29;96469.72;;;17.19;100.00
12178;BME280;6152;48.728;9.256;2023-04-23T08:21:58;96472.75;;;17.59;100.00
12178;BME280;6152;48.728;9.256;2023-04-23T08:24:24;96479.19;;;17.83;93.13
12178;BME280;6152;48.728;9.256;2023-04-23T08:26:55;96469.66;;;18.33;95.99
12178;BME280;6152;48.728;9.256;2023-04-23T08:29:22;96475.25;;;18.30;89.05
12178;BME280;6152;48.728;9.256;2023-04-23T08:31:48;96467.84;;;18.34;85.13
12178;BME280;6152;48.728;9.256;2023-04-23T08:34:14;96464.28;;;18.77;82.44
12178;BME280;6152;48.728;9.256;2023-04-23T08:36:40;96466.06;;;19.26;79.48
12178;BME280;6152;48.728;9.256;2023-04-23T08:39:06;96470.75;;;19.56;70.64
12178;BME280;6152;48.728;9.256;2023-04-23T08:41:38;96466.16;;;19.75;71.12
12178;BME280;6152;48.728;9.256;2023-04-23T08:44:12;96462.81;;;19.97;67.17
12178;BME280;6152;48.728;9.256;2023-04-23T08:46:43;96458.06;;;18.86;72.19
12178;BME280;6152;48.728;9.256;2023-04-23T08:49:14;96460.84;;;18.84;71.19
12178;BME280;6152;48.728;9.256;2023-04-23T08:51:52;96461.22;;;18.55;74.26
12178;BME280;6152;48.728;9.256;2023-04-23T08:54:25;96457.00;;;18.37;77.14
12178;BME280;6152;48.728;9.256;2023-04-23T08:56:58;96453.78;;;18.25;76.31
12178;BME280;6152;48.728;9.256;2023-04-23T08:59:30;96462.81;;;18.48;75.26
12178;BME280;6152;48.728;9.256;2023-04-23T09:01:59;96456.56;;;18.49;68.83
12178;BME280;6152;48.728;9.256;2023-04-23T09:04:33;96454.31;;;18.29;68.93
12178;BME280;6152;48.728;9.256;2023-04-23T09:07:00;96452.91;;;18.76;69.01
12178;BME280;6152;48.728;9.256;2023-04-23T09:09:28;96452.22;;;19.32;66.05
12178;BME280;6152;48.728;9.256;2023-04-23T09:11:55;96454.91;;;19.97;62.76
12178;BME280;6152;48.728;9.256;2023-04-23T09:14:25;96438.03;;;20.22;61.83
12178;BME280;6152;48.728;9.256;2023-04-23T09:16:52;96450.88;;;19.12;63.17
12178;BME280;6152;48.728;9.256;2023-04-23T09:19:18;96439.28;;;18.89;64.96
12178;BME280;6152;48.728;9.256;2023-04-23T09:21:45;96438.59;;;18.79;64.67
12178;BME280;6152;48.728;9.256;2023-04-23T09:24:12;96436.44;;;18.14;74.03
12178;BME280;6152;48.728;9.256;2023-04-23T09:26:49;96432.28;;;18.38;72.05
12178;BME280;6152;48.728;9.256;2023-04-23T09:29:16;96432.59;;;18.60;69.90
12178;BME280;6152;48.728;9.256;2023-04-23T09:31:45;96426.09;;;18.97;69.17
12178;BME280;6152;48.728;9.256;2023-04-23T09:34:15;96412.91;;;20.26;66.23
12178;BME280;6152;48.728;9.256;2023-04-23T09:36:44;96416.72;;;20.79;55.54
12178;BME280;6152;48.728;9.256;2023-04-23T09:39:12;96407.72;;;21.64;55.35
12178;BME280;6152;48.728;9.256;2023-04-23T09:41:39;96402.13;;;22.99;52.15
12178;BME280;6152;48.728;9.256;2023-04-23T09:44:05;96405.47;;;22.13;49.85
12178;BME280;6152;48.728;9.256;2023-04-23T09:46:37;96404.25;;;21.63;49.70
12178;BME280;6152;48.728;9.256;2023-04-23T09:49:04;96406.16;;;21.01;50.92
12178;BME280;6152;48.728;9.256;2023-04-23T09:54:02;96401.69;;;22.66;47.00
12178;BME280;6152;48.728;9.256;2023-04-23T09:56:30;96396.56;;;21.68;46.75
12178;BME280;6152;48.728;9.256;2023-04-23T09:58:57;96395.19;;;21.35;48.99
12178;BME280;6152;48.728;9.256;2023-04-23T10:01:29;96402.66;;;20.31;51.29
12178;BME280;6152;48.728;9.256;2023-04-23T10:03:55;96396.34;;;19.37;56.14
12178;BME280;6152;48.728;9.256;2023-04-23T10:06:29;96391.88;;;19.13;59.28
12178;BME280;6152;48.728;9.256;2023-04-23T10:08:56;96390.97;;;18.80;61.22
12178;BME280;6152;48.728;9.256;2023-04-23T10:11:24;96374.78;;;18.67;62.04
12178;BME280;6152;48.728;9.256;2023-04-23T10:13:53;96366.91;;;18.33;61.87
12178;BME280;6152;48.728;9.256;2023-04-23T10:16:21;96371.50;;;18.65;63.54
12178;BME280;6152;48.728;9.256;2023-04-23T10:18:50;96359.94;;;20.58;60.09
12178;BME280;6152;48.728;9.256;2023-04-23T10:21:17;96364.72;;;21.39;49.90
12178;BME280;6152;48.728;9.256;2023-04-23T10:23:46;96356.34;;;20.82;49.51
12178;BME280;6152;48.728;9.256;2023-04-23T10:26:15;96353.00;;;20.88;51.38
12178;BME280;6152;48.728;9.256;2023-04-23T10:28:46;96358.03;;;20.44;50.98
12178;BME280;6152;48.728;9.256;2023-04-23T10:31:13;96348.38;;;20.12;51.67
12178;BME280;6152;48.728;9.256;2023-04-23T10:33:41;96343.75;;;21.15;48.95
12178;BME280;6152;48.728;9.256;2023-04-23T10:36:08;96345.22;;;22.07;45.79
12178;BME280;6152;48.728;9.256;2023-04-23T10:38:35;96345.63;;;23.26;44.42
12178;BME280;6152;48.728;9.256;2023-04-23T10:41:02;96331.00;;;25.15;41.51
12178;BME280;6152;48.728;9.256;2023-04-23T10:43:29;96334.53;;;25.88;38.70
12178;BME280;6152;48.728;9.256;2023-04-23T10:45:55;96334.06;;;26.04;37.88
12178;BME280;6152;48.728;9.256;2023-04-23T10:48:21;96327.13;;;27.11;35.44
12178;BME280;6152;48.728;9.256;2023-04-23T10:50:57;96317.34;;;27.62;35.68
12178;BME280;6152;48.728;9.256;2023-04-23T10:53:24;96314.59;;;28.66;33.83
12178;BME280;6152;48.728;9.256;2023-04-23T10:56:04;96303.75;;;27.32;32.81
12178;BME280;6152;48.728;9.256;2023-04-23T10:58:58;96296.59;;;27.82;32.47
12178;BME280;6152;48.728;9.256;2023-04-23T11:01:28;96291.34;;;26.37;33.84
12178;BME280;6152;48.728;9.256;2023-04-23T11:03:55;96297.53;;;26.75;32.98
12178;BME280;6152;48.728;9.256;2023-04-23T11:09:39;96282.06;;;29.51;30.49
12178;BME280;6152;48.728;9.256;2023-04-23T11:12:08;96276.00;;;29.44;29.71
12178;BME280;6152;48.728;9.256;2023-04-23T11:17:12;96270.13;;;29.89;30.34
12178;BME280;6152;48.728;9.256;2023-04-23T11:19:39;96280.47;;;30.20;27.64
12178;BME280;6152;48.728;9.256;2023-04-23T11:22:15;96263.78;;;30.06;27.83
12178;BME280;6152;48.728;9.256;2023-04-23T11:24:43;96263.28;;;30.33;28.35
12178;BME280;6152;48.728;9.256;2023-04-23T11:27:13;96265.19;;;28.32;30.20
12178;BME280;6152;48.728;9.256;2023-04-23T11:29:41;96271.25;;;26.72;32.47
12178;BME280;6152;48.728;9.256;2023-04-23T11:32:08;96260.88;;;26.57;34.17
12178;BME280;6152;48.728;9.256;2023-04-23T11:34:42;96257.88;;;25.63;34.60
12178;BME280;6152;48.728;9.256;2023-04-23T11:37:10;96250.84;;;25.89;34.62
12178;BME280;6152;48.728;9.256;2023-04-23T11:39:37;96242.59;;;25.97;33.98
12178;BME280;6152;48.728;9.256;2023-04-23T11:42:12;96248.78;;;25.91;34.49
12178;BME280;6152;48.728;9.256;2023-04-23T11:44:40;96243.50;;;25.38;34.81
12178;BME280;6152;48.728;9.256;2023-04-23T11:47:13;96238.09;;;24.59;35.87
12178;BME280;6152;48.728;9.256;2023-04-23T11:49:42;96239.72;;;24.47;36.70
12178;BME280;6152;48.728;9.256;2023-04-23T11:52:09;96226.34;;;23.93;37.72
12178;BME280;6152;48.728;9.256;2023-04-23T11:54:38;96232.38;;;22.91;39.20
12178;BME280;6152;48.728;9.256;2023-04-23T11:57:04;96222.13;;;23.09;39.00
12178;BME280;6152;48.728;9.256;2023-04-23T11:59:31;96219.41;;;23.86;39.19
12178;BME280;6152;48.728;9.256;2023-04-23T12:01:58;96213.75;;;24.76;37.22
12178;BME280;6152;48.728;9.256;2023-04-23T12:04:27;96203.94;;;25.68;34.62
12178;BME280;6152;48.728;9.256;2023-04-23T12:06:55;96204.38;;;26.60;35.55
12178;BME280;6152;48.728;9.256;2023-04-23T12:09:26;96208.94;;;27.16;32.19
12178;BME280;6152;48.728;9.256;2023-04-23T12:11:53;96201.19;;;26.77;32.55
12178;BME280;6152;48.728;9.256;2023-04-23T12:14:24;96201.06;;;26.65;32.73
12178;BME280;6152;48.728;9.256;2023-04-23T12:16:53;96199.25;;;25.24;34.01
12178;BME280;6152;48.728;9.256;2023-04-23T12:19:25;96188.59;;;25.11;35.00
12178;BME280;6152;48.728;9.256;2023-04-23T12:22:02;96194.09;;;24.77;36.77
12178;BME280;6152;48.728;9.256;2023-04-23T12:24:45;96192.50;;;24.08;36.74
12178;BME280;6152;48.728;9.256;2023-04-23T12:27:14;96188.22;;;24.14;38.89
12178;BME280;6152;48.728;9.256;2023-04-23T12:29:41;96182.19;;;23.51;38.82
12178;BME280;6152;48.728;9.256;2023-04-23T12:32:13;96167.59;;;22.79;39.44
12178;BME280;6152;48.728;9.256;2023-04-23T12:34:51;96168.84;;;22.40;41.56
12178;BME280;6152;48.728;9.256;2023-04-23T12:37:22;96175.63;;;22.28;41.33
12178;BME280;6152;48.728;9.256;2023-04-23T12:39:48;96173.47;;;22.17;41.65
12178;BME280;6152;48.728;9.256;2023-04-23T12:42:14;96172.44;;;21.97;41.61
12178;BME280;6152;48.728;9.256;2023-04-23T12:44:40;96163.50;;;21.68;42.23
12178;BME280;6152;48.728;9.256;2023-04-23T12:47:08;96156.41;;;21.25;45.30
12178;BME280;6152;48.728;9.256;2023-04-23T12:49:40;96155.38;;;20.37;45.27
12178;BME280;6152;48.728;9.256;2023-04-23T12:52:08;96159.41;;;19.94;46.54
12178;BME280;6152;48.728;9.256;2023-04-23T12:54:35;96147.56;;;19.90;47.77
12178;BME280;6152;48.728;9.256;2023-04-23T12:57:04;96146.69;;;19.66;48.28
12178;BME280;6152;48.728;9.256;2023-04-23T12:59:31;96152.94;;;19.74;49.64
12178;BME280;6152;48.728;9.256;2023-04-23T13:01:58;96144.28;;;19.57;50.42
12178;BME280;6152;48.728;9.256;2023-04-23T13:04:28;96142.53;;;19.72;50.48
12178;BME280;6152;48.728;9.256;2023-04-23T13:06:55;96132.28;;;19.77;50.96
12178;BME280;6152;48.728;9.256;2023-04-23T13:09:21;96123.75;;;19.98;50.07
12178;BME280;6152;48.728;9.256;2023-04-23T13:11:49;96117.41;;;20.52;53.44
12178;BME280;6152;48.728;9.256;2023-04-23T13:14:16;96112.78;;;20.69;49.74